Time;durP1;ratioP1;P1;durP2;ratioP2;P2;SDS_P1;SDS_P2;PMS_P1;PMS_P2;Temp;Humidity;BMP_temperature;BMP_pressure;BME280_temperature;BME280_humidity;BME280_pressure;Samples;Min_cycle;Max_cycle;Signal;HPM_P1;HPM_P2
2023/12/28 00:00:58;;;;;;;18.00;8.93;;;;;;;;;;5030745;28;20363;-69
2023/12/28 00:03:24;;;;;;;18.37;8.60;;;;;;;;;;5029827;28;20520;-71
2023/12/28 00:05:49;;;;;;;18.83;9.10;;;;;;;;;;5030862;28;20277;-69
2023/12/28 00:08:15;;;;;;;22.37;9.23;;;;;;;;;;5030454;28;20310;-69
2023/12/28 00:10:41;;;;;;;17.23;8.50;;;;;;;;;;5012583;28;20553;-69
2023/12/28 00:13:06;;;;;;;19.50;8.70;;;;;;;;;;5012584;28;20025;-68
2023/12/28 00:15:33;;;;;;;23.40;9.53;;;;;;;;;;5030182;28;20036;-69
2023/12/28 00:17:58;;;;;;;23.03;12.23;;;;;;;;;;5029632;28;20585;-70
2023/12/28 00:20:24;;;;;;;21.10;9.77;;;;;;;;;;5028576;28;20112;-70
2023/12/28 00:22:50;;;;;;;20.27;8.97;;;;;;;;;;5030380;28;20036;-69
2023/12/28 00:25:15;;;;;;;18.40;9.73;;;;;;;;;;5029946;28;20079;-70
2023/12/28 00:27:42;;;;;;;25.40;10.63;;;;;;;;;;5030072;28;20478;-69
2023/12/28 00:30:08;;;;;;;17.73;9.37;;;;;;;;;;5029752;28;20018;-69
2023/12/28 00:32:33;;;;;;;20.73;9.23;;;;;;;;;;5029742;28;20029;-69
2023/12/28 00:34:59;;;;;;;20.87;9.47;;;;;;;;;;5011881;28;20482;-72
2023/12/28 00:37:24;;;;;;;20.90;9.87;;;;;;;;;;5029782;28;20025;-69
2023/12/28 00:39:50;;;;;;;21.40;9.87;;;;;;;;;;5029734;28;20449;-69
2023/12/28 00:42:17;;;;;;;19.73;9.30;;;;;;;;;;5012015;28;20033;-70
2023/12/28 00:44:43;;;;;;;19.07;8.53;;;;;;;;;;5012129;28;20034;-69
2023/12/28 00:47:08;;;;;;;16.70;8.37;;;;;;;;;;5012620;28;20074;-68
2023/12/28 00:49:34;;;;;;;19.37;9.50;;;;;;;;;;5012643;28;20075;-69
2023/12/28 00:51:59;;;;;;;19.67;8.97;;;;;;;;;;5012417;28;20033;-69
2023/12/28 00:54:26;;;;;;;20.10;7.60;;;;;;;;;;5011918;28;20129;-70
2023/12/28 00:56:52;;;;;;;19.60;9.53;;;;;;;;;;5011778;28;20116;-69
2023/12/28 00:59:20;;;;;;;23.90;9.90;;;;;;;;;;5029410;28;20492;-69
2023/12/28 01:01:46;;;;;;;19.13;10.07;;;;;;;;;;5029355;28;20045;-70
2023/12/28 01:04:12;;;;;;;25.23;10.07;;;;;;;;;;5035380;28;20059;-69
2023/12/28 01:06:37;;;;;;;22.87;8.90;;;;;;;;;;5031355;28;20036;-68
2023/12/28 01:09:03;;;;;;;26.37;10.40;;;;;;;;;;5049649;28;20033;-69
2023/12/28 01:11:28;;;;;;;23.63;10.17;;;;;;;;;;5049097;28;20029;-69
2023/12/28 01:13:54;;;;;;;23.50;9.60;;;;;;;;;;5028761;28;20469;-68
2023/12/28 01:16:20;;;;;;;19.13;10.13;;;;;;;;;;5029283;28;20033;-69
2023/12/28 01:18:45;;;;;;;17.50;9.57;;;;;;;;;;5011752;28;20451;-70
2023/12/28 01:21:11;;;;;;;23.10;10.13;;;;;;;;;;5011624;28;20432;-70
2023/12/28 01:23:36;;;;;;;19.97;9.07;;;;;;;;;;5029144;28;20029;-69
2023/12/28 01:26:03;;;;;;;21.87;9.53;;;;;;;;;;5029725;28;20078;-70
2023/12/28 01:28:28;;;;;;;18.30;8.87;;;;;;;;;;5017148;28;20029;-68
2023/12/28 01:30:54;;;;;;;17.07;10.30;;;;;;;;;;5031117;28;20074;-68
2023/12/28 01:33:21;;;;;;;22.67;11.37;;;;;;;;;;5031154;28;20102;-69
2023/12/28 01:35:47;;;;;;;19.90;9.97;;;;;;;;;;5048974;28;20551;-69
2023/12/28 01:38:13;;;;;;;26.60;10.17;;;;;;;;;;5048764;28;20025;-73
2023/12/28 01:40:44;;;;;;;18.23;9.03;;;;;;;;;;5049172;28;20052;-68
2023/12/28 01:43:09;;;;;;;22.13;9.75;;;;;;;;;;5048984;28;20510;-69
2023/12/28 01:45:35;;;;;;;22.43;9.13;;;;;;;;;;5049127;28;20040;-68
2023/12/28 01:48:00;;;;;;;17.20;8.77;;;;;;;;;;5030855;28;20116;-69
2023/12/28 01:50:27;;;;;;;17.13;8.77;;;;;;;;;;5048767;28;20089;-68
2023/12/28 01:52:55;;;;;;;20.97;9.20;;;;;;;;;;5031344;28;20025;-69
2023/12/28 01:55:21;;;;;;;23.63;9.53;;;;;;;;;;5030676;28;20481;-69
2023/12/28 01:57:47;;;;;;;15.70;8.17;;;;;;;;;;5030593;28;20123;-68
2023/12/28 02:00:13;;;;;;;18.90;10.07;;;;;;;;;;5049253;28;20071;-70
2023/12/28 02:02:39;;;;;;;18.93;8.03;;;;;;;;;;5048691;28;20349;-68
2023/12/28 02:05:05;;;;;;;17.37;7.73;;;;;;;;;;5048622;28;20071;-69
2023/12/28 02:07:32;;;;;;;15.87;8.37;;;;;;;;;;5030513;28;20337;-68
2023/12/28 02:09:58;;;;;;;12.67;7.67;;;;;;;;;;5048802;28;20029;-69
2023/12/28 02:12:23;;;;;;;14.67;7.37;;;;;;;;;;5033990;28;20427;-68
2023/12/28 02:14:49;;;;;;;17.20;7.50;;;;;;;;;;5011252;28;20545;-69
2023/12/28 02:17:48;;;;;;;16.63;8.10;;;;;;;;;;5011216;28;20025;-68
2023/12/28 02:20:15;;;;;;;13.97;7.17;;;;;;;;;;5002374;28;20068;-68
2023/12/28 02:22:41;;;;;;;10.40;6.57;;;;;;;;;;5011203;28;20032;-70
2023/12/28 02:25:08;;;;;;;17.13;7.80;;;;;;;;;;5016428;28;20037;-69
2023/12/28 02:27:47;;;;;;;20.17;8.10;;;;;;;;;;5017890;28;20029;-68
2023/12/28 02:30:15;;;;;;;11.30;6.47;;;;;;;;;;5034958;28;20045;-69
2023/12/28 02:32:44;;;;;;;14.53;6.33;;;;;;;;;;5034385;28;20106;-70
2023/12/28 02:35:33;;;;;;;11.67;6.77;;;;;;;;;;5032767;28;20366;-68
2023/12/28 02:38:02;;;;;;;14.57;7.27;;;;;;;;;;5042368;28;20156;-68
2023/12/28 02:40:31;;;;;;;20.60;7.90;;;;;;;;;;5052011;28;20029;-68
2023/12/28 02:42:56;;;;;;;11.43;6.27;;;;;;;;;;5034189;28;20056;-70
2023/12/28 02:45:22;;;;;;;15.87;7.37;;;;;;;;;;5051799;28;20063;-68
2023/12/28 02:47:50;;;;;;;13.80;6.93;;;;;;;;;;5041933;28;20037;-71
2023/12/28 02:50:15;;;;;;;18.03;7.83;;;;;;;;;;5032095;28;20060;-68
2023/12/28 02:52:41;;;;;;;15.40;7.00;;;;;;;;;;5013891;28;20056;-71
2023/12/28 02:55:07;;;;;;;13.57;5.57;;;;;;;;;;5014177;28;20481;-69
2023/12/28 02:57:32;;;;;;;16.70;6.80;;;;;;;;;;5031754;28;20374;-68
2023/12/28 03:00:01;;;;;;;13.10;6.60;;;;;;;;;;5032101;28;20442;-68
2023/12/28 03:02:27;;;;;;;12.90;6.30;;;;;;;;;;5031891;28;20037;-70
2023/12/28 03:04:52;;;;;;;12.47;6.47;;;;;;;;;;5031717;28;20049;-69
2023/12/28 03:07:18;;;;;;;19.00;6.17;;;;;;;;;;5013874;28;20021;-69
2023/12/28 03:09:45;;;;;;;15.00;6.37;;;;;;;;;;5013808;28;20040;-68
2023/12/28 03:12:10;;;;;;;11.10;5.23;;;;;;;;;;5031628;28;20039;-69
2023/12/28 03:14:36;;;;;;;12.67;5.67;;;;;;;;;;5013684;28;20406;-69
2023/12/28 03:17:01;;;;;;;15.13;6.60;;;;;;;;;;5026297;28;20037;-69
2023/12/28 03:19:28;;;;;;;10.10;6.03;;;;;;;;;;5031333;28;20032;-69
2023/12/28 03:21:53;;;;;;;13.17;6.57;;;;;;;;;;5029922;28;20156;-70
2023/12/28 03:24:19;;;;;;;14.93;7.00;;;;;;;;;;5030305;28;20382;-68
2023/12/28 03:26:44;;;;;;;13.60;6.53;;;;;;;;;;5029946;28;20033;-68
2023/12/28 03:29:10;;;;;;;14.30;6.63;;;;;;;;;;5031360;28;20063;-70
2023/12/28 03:31:39;;;;;;;15.10;7.67;;;;;;;;;;5013414;28;20548;-68
2023/12/28 03:34:04;;;;;;;16.93;8.97;;;;;;;;;;5013611;28;20033;-69
2023/12/28 03:36:30;;;;;;;16.63;7.50;;;;;;;;;;5012806;28;20052;-68
2023/12/28 03:38:55;;;;;;;17.53;9.23;;;;;;;;;;5031080;28;20052;-70
2023/12/28 03:41:21;;;;;;;15.03;8.93;;;;;;;;;;5031102;28;20029;-68
2023/12/28 03:43:48;;;;;;;19.50;9.40;;;;;;;;;;5019943;28;20139;-70
2023/12/28 03:46:13;;;;;;;23.53;10.70;;;;;;;;;;5032528;28;20127;-69
2023/12/28 03:48:39;;;;;;;14.83;8.23;;;;;;;;;;5031853;28;20489;-69
2023/12/28 03:51:05;;;;;;;17.40;8.10;;;;;;;;;;5030042;28;20033;-68
2023/12/28 03:53:31;;;;;;;17.27;7.83;;;;;;;;;;5030962;28;20040;-69
2023/12/28 03:56:00;;;;;;;17.50;9.63;;;;;;;;;;5029717;28;20104;-68
2023/12/28 03:58:25;;;;;;;16.87;8.07;;;;;;;;;;5019479;28;20048;-68
2023/12/28 04:00:54;;;;;;;19.80;8.90;;;;;;;;;;5013067;28;20033;-67
2023/12/28 04:03:20;;;;;;;15.83;8.03;;;;;;;;;;5012715;28;20337;-68
2023/12/28 04:05:46;;;;;;;13.30;7.53;;;;;;;;;;5012735;28;20053;-67
2023/12/28 04:08:12;;;;;;;16.70;8.10;;;;;;;;;;5030713;28;20026;-68
2023/12/28 04:10:38;;;;;;;19.60;8.07;;;;;;;;;;5012305;28;20036;-68
2023/12/28 04:13:05;;;;;;;16.63;8.67;;;;;;;;;;5029198;28;20112;-68
2023/12/28 04:15:30;;;;;;;18.30;8.07;;;;;;;;;;5030446;28;20045;-70
2023/12/28 04:17:57;;;;;;;19.83;8.83;;;;;;;;;;5031051;28;20029;-69
2023/12/28 04:20:23;;;;;;;19.47;9.07;;;;;;;;;;5030519;28;20029;-72
2023/12/28 04:22:48;;;;;;;27.47;9.10;;;;;;;;;;5028480;28;20042;-68
2023/12/28 04:25:16;;;;;;;20.87;9.93;;;;;;;;;;5030282;28;20056;-68
2023/12/28 04:27:42;;;;;;;17.50;9.30;;;;;;;;;;4996378;28;20060;-69
2023/12/28 04:30:11;;;;;;;21.23;8.93;;;;;;;;;;5030351;28;20438;-69
2023/12/28 04:32:37;;;;;;;17.43;8.97;;;;;;;;;;5017477;28;20548;-67
2023/12/28 04:35:03;;;;;;;18.97;10.27;;;;;;;;;;4996151;28;20100;-70
2023/12/28 04:37:32;;;;;;;18.17;9.27;;;;;;;;;;5012661;28;20155;-69
2023/12/28 04:39:58;;;;;;;18.97;8.13;;;;;;;;;;5012442;28;20485;-68
2023/12/28 04:42:23;;;;;;;17.17;7.90;;;;;;;;;;5029415;28;20040;-72
2023/12/28 04:44:49;;;;;;;17.53;8.53;;;;;;;;;;5030164;28;20029;-70
2023/12/28 04:47:14;;;;;;;17.23;8.73;;;;;;;;;;5029901;28;20084;-68
2023/12/28 04:49:40;;;;;;;14.50;7.13;;;;;;;;;;5027441;28;20433;-68
2023/12/28 04:52:06;;;;;;;12.60;6.90;;;;;;;;;;5029911;28;20072;-68
2023/12/28 04:54:33;;;;;;;19.83;7.97;;;;;;;;;;5028168;28;20469;-69
2023/12/28 04:56:58;;;;;;;24.47;9.93;;;;;;;;;;5013212;28;20034;-69
2023/12/28 04:59:24;;;;;;;16.60;8.60;;;;;;;;;;5029875;28;20048;-70
2023/12/28 05:01:49;;;;;;;19.03;8.43;;;;;;;;;;5012209;28;20033;-71
2023/12/28 05:04:15;;;;;;;19.77;9.47;;;;;;;;;;5030082;28;20142;-69
2023/12/28 05:06:40;;;;;;;20.50;9.53;;;;;;;;;;5030305;28;20026;-69
2023/12/28 05:09:07;;;;;;;16.70;9.60;;;;;;;;;;5013485;28;20033;-70
2023/12/28 05:11:32;;;;;;;22.20;11.60;;;;;;;;;;5028036;28;20035;-72
2023/12/28 05:13:59;;;;;;;18.23;9.33;;;;;;;;;;5029626;28;20029;-72
2023/12/28 05:16:25;;;;;;;19.57;9.70;;;;;;;;;;5028017;28;20079;-69
2023/12/28 05:18:50;;;;;;;18.00;8.70;;;;;;;;;;5029384;28;20045;-69
2023/12/28 05:21:17;;;;;;;25.17;9.17;;;;;;;;;;5029459;28;20107;-68
2023/12/28 05:23:42;;;;;;;16.70;8.47;;;;;;;;;;5028808;28;20041;-70
2023/12/28 05:26:08;;;;;;;18.37;8.87;;;;;;;;;;5012230;28;20114;-69
2023/12/28 05:28:33;;;;;;;18.93;9.20;;;;;;;;;;5011224;28;20544;-68
2023/12/28 05:31:00;;;;;;;15.83;7.97;;;;;;;;;;5029303;28;20425;-69
2023/12/28 05:33:25;;;;;;;20.17;9.40;;;;;;;;;;5029366;28;20075;-69
2023/12/28 05:35:51;;;;;;;20.03;8.27;;;;;;;;;;5011495;28;20061;-70
2023/12/28 05:38:18;;;;;;;17.10;7.50;;;;;;;;;;5026278;28;20214;-68
2023/12/28 05:40:44;;;;;;;18.67;8.60;;;;;;;;;;5029017;28;20037;-71
2023/12/28 05:43:11;;;;;;;23.77;7.50;;;;;;;;;;5027935;28;20060;-68
2023/12/28 05:45:37;;;;;;;12.93;6.63;;;;;;;;;;5027716;28;20033;-69
2023/12/28 05:48:04;;;;;;;16.20;6.80;;;;;;;;;;5029225;28;20536;-69
2023/12/28 05:50:30;;;;;;;13.40;6.47;;;;;;;;;;5029521;28;20040;-69
2023/12/28 05:52:56;;;;;;;11.93;6.47;;;;;;;;;;5030295;28;20022;-68
2023/12/28 05:55:21;;;;;;;13.33;6.67;;;;;;;;;;5028051;28;20036;-70
2023/12/28 05:57:47;;;;;;;14.77;6.90;;;;;;;;;;5028527;28;20026;-70
2023/12/28 06:00:14;;;;;;;15.33;6.77;;;;;;;;;;5017640;28;20474;-71
2023/12/28 06:02:40;;;;;;;15.67;6.77;;;;;;;;;;5032435;28;20068;-69
2023/12/28 06:05:06;;;;;;;14.00;6.93;;;;;;;;;;5045797;28;20084;-68
2023/12/28 06:07:32;;;;;;;13.87;6.93;;;;;;;;;;5052627;28;20498;-67
2023/12/28 06:09:57;;;;;;;14.23;6.33;;;;;;;;;;5052958;28;20116;-69
2023/12/28 06:12:23;;;;;;;12.87;6.40;;;;;;;;;;5040852;28;20120;-69
2023/12/28 06:14:50;;;;;;;16.07;7.60;;;;;;;;;;5032377;28;20091;-67
2023/12/28 06:17:18;;;;;;;11.00;7.10;;;;;;;;;;5014825;28;20437;-69
2023/12/28 06:19:43;;;;;;;11.63;5.63;;;;;;;;;;5033426;28;20025;-70
2023/12/28 06:22:09;;;;;;;18.27;7.93;;;;;;;;;;5033060;28;20090;-69
2023/12/28 06:24:39;;;;;;;15.40;8.13;;;;;;;;;;5014566;28;20057;-68
2023/12/28 06:27:05;;;;;;;22.10;7.77;;;;;;;;;;5033297;28;20038;-72
2023/12/28 06:29:30;;;;;;;16.17;6.97;;;;;;;;;;5014562;28;20386;-70
2023/12/28 06:31:56;;;;;;;13.17;5.97;;;;;;;;;;5031847;28;20037;-69
2023/12/28 06:34:21;;;;;;;13.83;6.47;;;;;;;;;;5032382;28;20057;-69
2023/12/28 06:36:47;;;;;;;12.37;6.60;;;;;;;;;;5014280;28;20064;-69
2023/12/28 06:39:12;;;;;;;15.27;7.20;;;;;;;;;;5014841;28;20065;-70
2023/12/28 06:41:41;;;;;;;13.47;6.97;;;;;;;;;;5031260;28;20043;-69
2023/12/28 06:44:07;;;;;;;14.57;6.57;;;;;;;;;;5031978;28;20141;-69
2023/12/28 06:46:32;;;;;;;14.43;6.30;;;;;;;;;;5014003;28;20040;-70
2023/12/28 06:48:58;;;;;;;13.50;6.40;;;;;;;;;;5014290;28;20033;-69
2023/12/28 06:51:25;;;;;;;14.13;6.57;;;;;;;;;;5014087;28;20033;-70
2023/12/28 06:53:52;;;;;;;12.03;5.63;;;;;;;;;;5020550;28;20025;-70
2023/12/28 06:56:18;;;;;;;15.00;7.07;;;;;;;;;;5033955;28;20048;-72
2023/12/28 06:58:44;;;;;;;14.27;6.53;;;;;;;;;;5051756;28;20571;-69
2023/12/28 07:01:11;;;;;;;16.97;7.03;;;;;;;;;;5033741;28;20029;-70
2023/12/28 07:03:36;;;;;;;18.50;7.37;;;;;;;;;;5051182;28;20552;-68
2023/12/28 07:06:03;;;;;;;12.40;6.80;;;;;;;;;;5052502;28;20029;-71
2023/12/28 07:08:30;;;;;;;11.20;6.93;;;;;;;;;;5020429;28;20051;-68
2023/12/28 07:10:57;;;;;;;12.43;7.23;;;;;;;;;;5031512;28;20528;-71
2023/12/28 07:13:23;;;;;;;12.17;6.60;;;;;;;;;;5030845;28;20041;-68
2023/12/28 07:15:49;;;;;;;17.73;6.40;;;;;;;;;;5013741;28;20029;-68
2023/12/28 07:18:15;;;;;;;22.50;7.07;;;;;;;;;;5013877;28;20037;-69
2023/12/28 07:20:41;;;;;;;15.70;5.77;;;;;;;;;;5031373;28;20029;-70
2023/12/28 07:23:06;;;;;;;19.00;6.67;;;;;;;;;;5031709;28;20033;-69
2023/12/28 07:25:33;;;;;;;21.73;7.93;;;;;;;;;;5030915;28;20063;-69
2023/12/28 07:27:58;;;;;;;16.60;5.50;;;;;;;;;;5031584;28;20462;-69
2023/12/28 07:30:24;;;;;;;12.47;5.43;;;;;;;;;;5013663;28;20075;-70
2023/12/28 07:32:49;;;;;;;11.00;5.70;;;;;;;;;;5013065;28;20082;-71
2023/12/28 07:35:16;;;;;;;9.80;5.07;;;;;;;;;;5014345;28;20040;-71
2023/12/28 07:37:42;;;;;;;9.93;4.87;;;;;;;;;;4997386;28;20099;-70
2023/12/28 07:40:08;;;;;;;12.50;4.80;;;;;;;;;;5031201;28;20029;-69
2023/12/28 07:42:34;;;;;;;7.70;4.60;;;;;;;;;;5013394;28;20029;-69
2023/12/28 07:45:00;;;;;;;9.20;5.00;;;;;;;;;;5030945;28;20448;-69
2023/12/28 07:47:27;;;;;;;12.37;4.83;;;;;;;;;;5031076;28;20025;-68
2023/12/28 07:49:52;;;;;;;12.87;4.23;;;;;;;;;;5022437;28;20082;-71
2023/12/28 07:52:18;;;;;;;10.40;4.20;;;;;;;;;;5019791;28;20124;-70
2023/12/28 07:54:44;;;;;;;11.83;5.53;;;;;;;;;;5032532;28;20048;-70
2023/12/28 07:57:10;;;;;;;11.20;4.50;;;;;;;;;;5014115;28;20037;-69
2023/12/28 07:59:36;;;;;;;17.57;7.03;;;;;;;;;;5033031;28;20069;-70
2023/12/28 08:02:05;;;;;;;14.13;5.83;;;;;;;;;;5015718;28;20026;-69
2023/12/28 08:04:36;;;;;;;12.67;5.10;;;;;;;;;;5021592;28;20084;-68
2023/12/28 08:07:01;;;;;;;10.60;5.23;;;;;;;;;;5017339;28;20394;-70
2023/12/28 08:09:32;;;;;;;9.57;4.80;;;;;;;;;;5030950;28;20040;-70
2023/12/28 08:11:59;;;;;;;7.07;4.40;;;;;;;;;;5010759;28;20057;-70
2023/12/28 08:14:25;;;;;;;7.77;3.87;;;;;;;;;;4995251;28;20033;-68
2023/12/28 08:16:50;;;;;;;8.90;3.63;;;;;;;;;;5017119;28;20025;-71
2023/12/28 08:19:18;;;;;;;7.37;4.07;;;;;;;;;;5014721;28;20037;-68
2023/12/28 08:21:43;;;;;;;8.00;3.23;;;;;;;;;;5012059;28;20025;-72
2023/12/28 08:24:09;;;;;;;8.70;3.73;;;;;;;;;;5029876;28;20033;-69
2023/12/28 08:26:37;;;;;;;6.97;2.67;;;;;;;;;;5029717;28;20464;-71
2023/12/28 08:29:02;;;;;;;8.33;3.60;;;;;;;;;;5031016;28;20043;-70
2023/12/28 08:31:31;;;;;;;5.53;2.83;;;;;;;;;;5030812;28;20104;-70
2023/12/28 08:33:56;;;;;;;6.80;3.13;;;;;;;;;;5037944;28;20659;-72
2023/12/28 08:36:22;;;;;;;5.57;2.33;;;;;;;;;;5008108;28;20034;-69
2023/12/28 08:38:47;;;;;;;5.53;2.70;;;;;;;;;;4990857;28;20073;-70
2023/12/28 08:41:22;;;;;;;6.27;2.60;;;;;;;;;;5005860;28;20161;-70
2023/12/28 08:43:49;;;;;;;4.73;2.40;;;;;;;;;;4991139;28;20458;-68
2023/12/28 08:46:15;;;;;;;4.97;2.50;;;;;;;;;;5012407;28;20045;-70
2023/12/28 08:48:42;;;;;;;4.23;2.70;;;;;;;;;;4997587;28;20026;-70
2023/12/28 08:51:09;;;;;;;6.15;2.80;;;;;;;;;;4984527;28;20066;-70
2023/12/28 08:53:34;;;;;;;6.47;3.30;;;;;;;;;;5003345;28;20107;-68
2023/12/28 08:56:00;;;;;;;8.20;3.60;;;;;;;;;;4990487;28;20050;-68
2023/12/28 08:58:29;;;;;;;7.03;3.60;;;;;;;;;;5019615;28;20179;-70
2023/12/28 09:00:55;;;;;;;5.22;3.00;;;;;;;;;;5008955;28;20088;-70
2023/12/28 09:03:21;;;;;;;8.47;3.90;;;;;;;;;;5000241;28;20865;-70
2023/12/28 09:05:48;;;;;;;9.35;3.58;;;;;;;;;;5006505;28;20049;-69
2023/12/28 09:08:14;;;;;;;4.30;3.03;;;;;;;;;;5027187;28;20033;-69
2023/12/28 09:10:42;;;;;;;5.57;3.22;;;;;;;;;;5031113;28;20038;-70
2023/12/28 09:13:15;;;;;;;7.22;3.30;;;;;;;;;;5012045;28;20067;-69
2023/12/28 09:15:42;;;;;;;7.03;3.67;;;;;;;;;;5041299;28;20717;-70
2023/12/28 09:18:09;;;;;;;7.30;3.28;;;;;;;;;;5013517;28;20030;-69
2023/12/28 09:20:35;;;;;;;6.15;3.40;;;;;;;;;;5027132;28;20045;-69
2023/12/28 09:23:02;;;;;;;8.05;4.38;;;;;;;;;;5044573;28;20128;-69
2023/12/28 09:25:27;;;;;;;6.18;3.10;;;;;;;;;;5018192;28;20033;-70
2023/12/28 09:27:53;;;;;;;5.20;3.17;;;;;;;;;;5029063;28;20469;-68
2023/12/28 09:30:19;;;;;;;4.22;2.83;;;;;;;;;;5026080;28;20593;-71
2023/12/28 09:32:44;;;;;;;8.35;3.78;;;;;;;;;;5022441;28;20119;-68
2023/12/28 09:35:10;;;;;;;8.40;4.30;;;;;;;;;;5050068;28;20052;-68
2023/12/28 09:37:36;;;;;;;8.15;3.60;;;;;;;;;;5041527;28;20069;-70
2023/12/28 09:40:02;;;;;;;6.35;2.90;;;;;;;;;;5013875;28;20508;-73
2023/12/28 09:42:40;;;;;;;4.47;2.80;;;;;;;;;;5044843;28;20086;-69
2023/12/28 09:45:06;;;;;;;5.40;2.72;;;;;;;;;;5018978;28;20094;-70
2023/12/28 09:47:33;;;;;;;6.68;2.65;;;;;;;;;;5018331;28;20029;-70
2023/12/28 09:49:59;;;;;;;8.43;2.50;;;;;;;;;;5034669;28;20045;-70
2023/12/28 09:52:25;;;;;;;4.85;1.90;;;;;;;;;;5018023;28;20501;-71
2023/12/28 09:54:50;;;;;;;4.82;2.55;;;;;;;;;;5039928;28;20381;-70
2023/12/28 09:57:16;;;;;;;2.97;1.92;;;;;;;;;;5036173;28;20490;-69
2023/12/28 09:59:44;;;;;;;2.47;1.67;;;;;;;;;;5024275;28;20059;-71
2023/12/28 10:02:11;;;;;;;5.82;2.03;;;;;;;;;;5033032;28;20114;-71
2023/12/28 10:04:37;;;;;;;4.53;2.00;;;;;;;;;;5015862;28;20148;-69
2023/12/28 10:07:06;;;;;;;3.15;1.73;;;;;;;;;;5002620;28;20120;-68
2023/12/28 10:09:31;;;;;;;3.47;2.13;;;;;;;;;;5014339;28;20045;-70
2023/12/28 10:11:58;;;;;;;6.15;2.35;;;;;;;;;;5035152;28;20354;-69
2023/12/28 10:14:24;;;;;;;2.63;1.77;;;;;;;;;;5052761;28;20335;-68
2023/12/28 10:16:50;;;;;;;4.32;2.05;;;;;;;;;;5055174;28;20536;-70
2023/12/28 10:19:21;;;;;;;5.93;1.98;;;;;;;;;;5048889;28;20033;-69
2023/12/28 10:21:47;;;;;;;6.30;2.28;;;;;;;;;;5017827;28;20039;-69
2023/12/28 10:24:13;;;;;;;2.92;1.40;;;;;;;;;;5022785;28;20025;-68
2023/12/28 10:26:39;;;;;;;5.82;2.28;;;;;;;;;;5036274;28;20035;-70
2023/12/28 10:29:05;;;;;;;3.30;2.15;;;;;;;;;;5015305;28;20029;-71
2023/12/28 10:31:31;;;;;;;2.83;1.58;;;;;;;;;;5036448;28;20115;-70
2023/12/28 10:34:02;;;;;;;3.63;2.20;;;;;;;;;;5025503;28;20535;-68
2023/12/28 10:36:28;;;;;;;2.15;1.70;;;;;;;;;;5018500;28;20029;-71
2023/12/28 10:38:57;;;;;;;3.90;1.90;;;;;;;;;;5034562;28;20040;-70
2023/12/28 10:41:25;;;;;;;4.03;1.65;;;;;;;;;;5013977;28;20043;-68
2023/12/28 10:44:04;;;;;;;2.33;1.40;;;;;;;;;;5017132;28;20048;-71
2023/12/28 10:46:33;;;;;;;4.70;1.70;;;;;;;;;;5043151;28;20108;-70
2023/12/28 10:49:14;;;;;;;4.20;1.80;;;;;;;;;;5016551;28;20047;-68
2023/12/28 10:51:45;;;;;;;3.45;1.80;;;;;;;;;;5031985;28;20138;-70
2023/12/28 10:54:23;;;;;;;3.60;1.83;;;;;;;;;;5007638;28;20152;-70
2023/12/28 10:57:27;;;;;;;7.63;1.80;;;;;;;;;;5013668;28;20116;-69
2023/12/28 11:00:12;;;;;;;2.15;1.67;;;;;;;;;;5030083;28;20029;-70
2023/12/28 11:02:51;;;;;;;3.60;1.77;;;;;;;;;;5013273;28;20028;-71
2023/12/28 11:05:19;;;;;;;2.22;1.60;;;;;;;;;;5030253;28;20050;-70
2023/12/28 11:07:47;;;;;;;4.25;1.90;;;;;;;;;;5031081;28;20102;-71
2023/12/28 11:10:23;;;;;;;7.57;2.42;;;;;;;;;;5032383;28;20367;-70
2023/12/28 11:12:53;;;;;;;2.78;1.65;;;;;;;;;;5032042;28;20060;-69
2023/12/28 11:15:19;;;;;;;1.88;1.55;;;;;;;;;;5014121;28;20068;-72
2023/12/28 11:17:44;;;;;;;4.63;2.25;;;;;;;;;;5031530;28;20121;-71
2023/12/28 11:20:11;;;;;;;3.08;1.88;;;;;;;;;;5031920;28;20116;-69
2023/12/28 11:22:38;;;;;;;3.17;1.98;;;;;;;;;;5014024;28;20033;-69
2023/12/28 11:25:07;;;;;;;5.22;2.28;;;;;;;;;;5030308;28;20030;-70
2023/12/28 11:27:37;;;;;;;4.30;1.52;;;;;;;;;;5014315;28;20116;-73
2023/12/28 11:30:06;;;;;;;2.53;1.77;;;;;;;;;;5030858;28;20226;-71
2023/12/28 11:32:42;;;;;;;4.30;1.42;;;;;;;;;;5031797;28;20033;-69
2023/12/28 11:35:10;;;;;;;1.98;1.55;;;;;;;;;;5034883;28;20032;-71
2023/12/28 11:37:39;;;;;;;3.13;2.08;;;;;;;;;;5043931;28;20060;-71
2023/12/28 11:40:15;;;;;;;1.92;1.40;;;;;;;;;;5051588;28;20764;-70
2023/12/28 11:42:54;;;;;;;2.85;1.67;;;;;;;;;;5032058;28;20079;-70
2023/12/28 11:45:21;;;;;;;2.30;1.70;;;;;;;;;;5018602;28;20060;-70
2023/12/28 11:47:47;;;;;;;3.80;1.65;;;;;;;;;;5035339;28;20017;-72
2023/12/28 11:50:14;;;;;;;2.28;1.50;;;;;;;;;;5036550;28;20104;-70
2023/12/28 11:52:40;;;;;;;2.67;2.08;;;;;;;;;;5005103;28;20072;-69
2023/12/28 11:55:07;;;;;;;3.63;1.67;;;;;;;;;;4990762;28;20852;-69
2023/12/28 11:57:37;;;;;;;5.20;2.80;;;;;;;;;;5041099;28;20040;-72
2023/12/28 12:00:05;;;;;;;5.95;3.47;;;;;;;;;;5046721;28;20087;-71
2023/12/28 12:02:30;;;;;;;4.80;2.45;;;;;;;;;;5032330;28;20029;-69
2023/12/28 12:04:57;;;;;;;2.67;1.70;;;;;;;;;;5022358;28;20052;-71
2023/12/28 12:07:25;;;;;;;2.22;1.60;;;;;;;;;;5031693;28;20507;-70
2023/12/28 12:09:58;;;;;;;2.60;1.63;;;;;;;;;;5014639;28;20103;-71
2023/12/28 12:12:24;;;;;;;3.58;1.70;;;;;;;;;;4999076;28;20043;-71
2023/12/28 12:14:50;;;;;;;1.90;1.60;;;;;;;;;;5044260;28;20037;-70
2023/12/28 12:17:17;;;;;;;3.97;1.75;;;;;;;;;;5021900;28;20034;-72
2023/12/28 12:19:43;;;;;;;3.28;1.63;;;;;;;;;;5016266;28;20029;-72
2023/12/28 12:22:09;;;;;;;2.25;1.50;;;;;;;;;;5013219;28;20503;-70
2023/12/28 12:24:35;;;;;;;2.28;1.60;;;;;;;;;;5021098;28;20034;-70
2023/12/28 12:27:03;;;;;;;2.03;1.42;;;;;;;;;;5031587;28;20128;-70
2023/12/28 12:29:30;;;;;;;3.05;1.70;;;;;;;;;;5035727;28;20044;-69
2023/12/28 12:31:56;;;;;;;3.28;1.52;;;;;;;;;;5023450;28;20520;-71
2023/12/28 12:34:22;;;;;;;5.88;1.80;;;;;;;;;;5018753;28;20461;-73
2023/12/28 12:36:52;;;;;;;4.53;1.58;;;;;;;;;;5029103;28;20022;-73
2023/12/28 12:39:20;;;;;;;4.03;1.90;;;;;;;;;;5030597;28;20377;-71
2023/12/28 12:41:51;;;;;;;4.03;1.65;;;;;;;;;;5030336;28;20497;-69
2023/12/28 12:44:19;;;;;;;2.47;2.08;;;;;;;;;;5029700;28;20044;-72
2023/12/28 12:46:45;;;;;;;2.78;1.52;;;;;;;;;;4994992;28;20037;-70
2023/12/28 12:49:11;;;;;;;3.88;1.70;;;;;;;;;;5031606;28;20040;-70
2023/12/28 12:51:38;;;;;;;2.08;1.65;;;;;;;;;;5044180;28;20025;-72
2023/12/28 12:54:04;;;;;;;2.33;1.52;;;;;;;;;;5027923;28;20287;-70
2023/12/28 12:56:33;;;;;;;2.65;1.50;;;;;;;;;;5026870;28;20400;-70
2023/12/28 12:58:59;;;;;;;2.28;1.27;;;;;;;;;;5040680;28;20036;-71
2023/12/28 13:01:26;;;;;;;1.63;1.33;;;;;;;;;;5037700;28;20033;-73
2023/12/28 13:03:53;;;;;;;4.43;1.70;;;;;;;;;;5020054;28;20497;-72
2023/12/28 13:06:22;;;;;;;3.00;1.45;;;;;;;;;;5009000;28;20033;-71
2023/12/28 13:08:48;;;;;;;2.45;1.40;;;;;;;;;;5019108;28;20107;-69
2023/12/28 13:11:15;;;;;;;2.40;1.50;;;;;;;;;;5048419;28;20121;-69
2023/12/28 13:13:41;;;;;;;4.90;1.90;;;;;;;;;;5023246;28;20037;-70
2023/12/28 13:16:06;;;;;;;4.65;1.98;;;;;;;;;;5033280;28;20026;-70
2023/12/28 13:18:35;;;;;;;2.00;1.40;;;;;;;;;;5032844;28;20029;-71
2023/12/28 13:21:02;;;;;;;2.83;1.77;;;;;;;;;;5032833;28;20061;-70
2023/12/28 13:23:28;;;;;;;1.98;1.38;;;;;;;;;;5018508;28;20377;-70
2023/12/28 13:25:54;;;;;;;2.47;1.38;;;;;;;;;;5020124;28;20053;-69
2023/12/28 13:28:20;;;;;;;4.22;1.73;;;;;;;;;;5038236;28;20477;-69
2023/12/28 13:30:46;;;;;;;3.83;1.50;;;;;;;;;;5036949;28;20025;-71
2023/12/28 13:33:13;;;;;;;5.18;1.85;;;;;;;;;;5026059;28;20116;-72
2023/12/28 13:35:39;;;;;;;4.00;1.58;;;;;;;;;;5020185;28;20033;-70
2023/12/28 13:38:07;;;;;;;3.47;1.60;;;;;;;;;;5045859;28;20032;-71
2023/12/28 13:40:32;;;;;;;2.28;1.48;;;;;;;;;;5012891;28;20462;-70
2023/12/28 13:42:58;;;;;;;5.75;2.58;;;;;;;;;;5014024;28;20113;-72
2023/12/28 13:45:24;;;;;;;2.47;1.50;;;;;;;;;;5028552;28;20028;-70
2023/12/28 13:47:51;;;;;;;1.13;1.08;;;;;;;;;;5046749;28;20076;-69
2023/12/28 13:50:19;;;;;;;3.35;2.15;;;;;;;;;;5025677;28;20028;-71
2023/12/28 13:52:45;;;;;;;2.75;1.55;;;;;;;;;;5016711;28;20037;-70
2023/12/28 13:55:11;;;;;;;2.50;1.48;;;;;;;;;;5020013;28;20037;-71
2023/12/28 13:57:37;;;;;;;1.58;1.20;;;;;;;;;;5028711;28;20422;-70
2023/12/28 14:00:05;;;;;;;2.67;1.52;;;;;;;;;;5005852;28;20067;-70
2023/12/28 14:02:30;;;;;;;1.85;1.10;;;;;;;;;;5023688;28;20098;-70
2023/12/28 14:04:56;;;;;;;2.15;1.35;;;;;;;;;;5037966;28;20050;-70
2023/12/28 14:07:23;;;;;;;2.45;1.50;;;;;;;;;;5038921;28;20423;-69
2023/12/28 14:09:50;;;;;;;5.00;1.40;;;;;;;;;;5032891;28;20087;-72
2023/12/28 14:12:16;;;;;;;2.85;1.38;;;;;;;;;;5005748;28;20037;-69
2023/12/28 14:14:42;;;;;;;3.25;1.52;;;;;;;;;;5016575;28;20041;-70
2023/12/28 14:17:08;;;;;;;1.30;1.17;;;;;;;;;;5030649;28;20511;-71
2023/12/28 14:19:34;;;;;;;1.48;1.25;;;;;;;;;;5014353;28;20059;-70
2023/12/28 14:22:00;;;;;;;1.42;1.17;;;;;;;;;;5013327;28;20061;-69
2023/12/28 14:24:26;;;;;;;3.75;1.67;;;;;;;;;;5024367;28;20044;-71
2023/12/28 14:26:56;;;;;;;2.72;1.90;;;;;;;;;;5014445;28;20118;-70
2023/12/28 14:29:23;;;;;;;2.75;1.40;;;;;;;;;;5027087;28;20045;-70
2023/12/28 14:31:49;;;;;;;2.53;1.52;;;;;;;;;;5030033;28;20017;-72
2023/12/28 14:34:15;;;;;;;1.90;1.35;;;;;;;;;;5048748;28;20036;-69